GMMX/RAK METAR and TAF weather

Enter ICAO airport designator
Station Type Date Time Source
GMMX METAR 2019/10/23 05:30 UTC NOAA

GMMX 230530Z 10004KT 9999 FEW030 10/06 Q1017 NOSIG


Station Type Date Time Source
GMMX Decoded METAR 2019/10/23 05:30 UTC NOAA

Marrakech, Morocco (GMMX) 31-37N 008-02W 466M
Oct 23, 2019 - 01:30 AM EDT / 2019.10.23 0530 UTC
Wind: from the E (100 degrees) at 5 MPH (4 KT):0
Visibility: greater than 7 mile(s):0
Sky conditions: mostly clear
Temperature: 50 F (10 C)
Dew Point: 42 F (6 C)
Relative Humidity: 76%
Pressure (altimeter): 30.03 in. Hg (1017 hPa)
ob: GMMX 230530Z 10004KT 9999 FEW030 10/06 Q1017 NOSIG
cycle: 5

Station Type Date Time Source
GMMX TAF 2019/10/23 06:27 UTC NOAA

TAF TAF GMMX 230500Z 2306/2412 04006KT CAVOK
TEMPO 2317/2321 34016KT

Example: see airport list